createdAt,value
2017-08-22T00:00:57.816Z,90.90
2017-08-22T00:03:42.896Z,91.30
2017-08-22T00:06:10.352Z,91.50
2017-08-22T00:08:37.808Z,91.10
2017-08-22T00:11:05.256Z,91.20
2017-08-22T00:13:32.693Z,91.00
2017-08-22T00:16:00.179Z,91.30
2017-08-22T00:18:27.636Z,91.10
2017-08-22T00:20:55.061Z,91.00
2017-08-22T00:23:22.534Z,91.10
2017-08-22T00:25:49.978Z,91.30
2017-08-22T00:28:17.402Z,91.10
2017-08-22T00:30:44.909Z,91.60
2017-08-22T00:33:12.370Z,91.30
2017-08-22T00:35:39.790Z,91.30
2017-08-22T00:38:07.227Z,91.60
2017-08-22T00:40:34.735Z,91.60
2017-08-22T00:43:02.189Z,91.60
2017-08-22T00:45:29.617Z,91.60
2017-08-22T00:47:57.045Z,91.80
2017-08-22T00:50:24.493Z,91.60
2017-08-22T00:52:51.908Z,91.80
2017-08-22T00:55:19.392Z,92.00
2017-08-22T00:57:46.817Z,92.00
2017-08-22T01:00:14.252Z,92.10
2017-08-22T01:02:42.475Z,92.20
2017-08-22T01:05:10.037Z,92.20
2017-08-22T01:07:37.461Z,92.30
2017-08-22T01:10:04.894Z,92.30
2017-08-22T01:12:32.404Z,92.50
2017-08-22T01:14:59.853Z,92.60
2017-08-22T01:17:27.277Z,91.90
2017-08-22T01:19:54.772Z,92.10
2017-08-22T01:22:22.227Z,91.90
2017-08-22T01:24:49.736Z,92.10
2017-08-22T01:27:17.259Z,91.80
2017-08-22T01:29:44.677Z,91.60
2017-08-22T01:32:12.111Z,91.80
2017-08-22T01:34:39.625Z,92.20
2017-08-22T01:37:07.052Z,92.50
2017-08-22T01:39:34.539Z,92.70
2017-08-22T01:42:01.965Z,92.20
2017-08-22T01:44:29.395Z,92.10
2017-08-22T01:46:56.897Z,92.60
2017-08-22T01:49:24.344Z,92.80
2017-08-22T01:51:51.772Z,92.40
2017-08-22T01:54:19.273Z,92.30
2017-08-22T01:56:46.700Z,92.10
2017-08-22T01:59:14.182Z,92.00
2017-08-22T02:01:41.597Z,91.80
2017-08-22T02:04:09.046Z,91.70
2017-08-22T02:06:36.460Z,91.60
2017-08-22T02:09:03.888Z,91.70
2017-08-22T02:11:32.080Z,91.80
2017-08-22T02:13:59.505Z,91.80
2017-08-22T02:16:27.012Z,91.70
2017-08-22T02:18:54.432Z,91.70
2017-08-22T02:21:21.861Z,91.80
2017-08-22T02:23:49.673Z,91.70
2017-08-22T02:26:17.104Z,91.60
2017-08-22T02:28:44.640Z,91.70
2017-08-22T02:31:12.052Z,92.00
2017-08-22T02:33:39.488Z,91.60
2017-08-22T02:36:06.925Z,91.50
2017-08-22T02:38:34.437Z,91.40
2017-08-22T02:41:01.860Z,91.30
2017-08-22T02:43:29.294Z,91.50
2017-08-22T02:45:56.756Z,91.60
2017-08-22T02:48:24.264Z,91.70
2017-08-22T02:50:51.761Z,91.60
2017-08-22T02:53:19.215Z,91.60
2017-08-22T02:55:46.770Z,91.90
2017-08-22T02:58:14.187Z,91.80
2017-08-22T03:00:41.693Z,91.80
2017-08-22T03:03:09.168Z,92.00
2017-08-22T03:05:36.616Z,91.90
2017-08-22T03:08:04.053Z,92.00
2017-08-22T03:10:31.527Z,92.00
2017-08-22T03:12:58.972Z,91.90
2017-08-22T03:15:26.438Z,92.10
2017-08-22T03:17:53.873Z,92.40
2017-08-22T03:20:21.360Z,92.00
2017-08-22T03:22:48.920Z,92.00
2017-08-22T03:25:16.380Z,92.00
2017-08-22T03:27:43.814Z,92.20
2017-08-22T03:30:11.238Z,92.50
2017-08-22T03:32:38.736Z,92.60
2017-08-22T03:35:06.160Z,92.60
2017-08-22T03:37:33.661Z,92.40
2017-08-22T03:40:01.097Z,92.30
2017-08-22T03:42:28.528Z,92.40
2017-08-22T03:44:56.025Z,92.30
2017-08-22T03:47:23.474Z,92.30
2017-08-22T03:49:50.898Z,92.50
2017-08-22T03:52:18.323Z,92.40
2017-08-22T03:54:45.843Z,92.50
2017-08-22T03:57:13.328Z,92.60
2017-08-22T03:59:40.850Z,92.70
2017-08-22T04:02:08.272Z,92.70
2017-08-22T04:04:35.697Z,92.80
2017-08-22T04:07:03.121Z,92.70
2017-08-22T04:09:30.540Z,92.80
2017-08-22T04:11:58.037Z,92.70
2017-08-22T04:14:25.493Z,92.50
2017-08-22T04:16:52.917Z,92.60
2017-08-22T04:19:20.348Z,92.60
2017-08-22T04:21:47.770Z,92.60
2017-08-22T04:24:15.227Z,92.70
2017-08-22T04:26:42.637Z,92.70
2017-08-22T04:29:10.092Z,92.70
2017-08-22T04:31:37.604Z,92.60
2017-08-22T04:34:05.013Z,92.80
2017-08-22T04:36:32.624Z,92.80
2017-08-22T04:39:00.140Z,92.70
2017-08-22T04:41:27.768Z,92.80
2017-08-22T04:43:55.198Z,92.90
2017-08-22T04:46:22.651Z,92.90
2017-08-22T04:48:50.396Z,93.00
2017-08-22T04:51:17.900Z,93.00
2017-08-22T04:53:45.352Z,93.10
2017-08-22T04:56:12.788Z,93.00
2017-08-22T04:58:40.299Z,92.90
2017-08-22T05:01:07.756Z,92.90
2017-08-22T05:03:35.199Z,92.90
2017-08-22T05:06:02.696Z,93.00
2017-08-22T05:08:30.117Z,92.80
2017-08-22T05:10:57.540Z,92.90
2017-08-22T05:13:24.966Z,92.90
2017-08-22T05:15:52.546Z,92.80
2017-08-22T05:18:19.982Z,92.70
2017-08-22T05:20:47.431Z,92.70
2017-08-22T05:23:14.899Z,92.50
2017-08-22T05:25:42.340Z,92.60
2017-08-22T05:28:09.812Z,92.50
2017-08-22T05:30:37.290Z,92.50
2017-08-22T05:33:04.900Z,92.40
2017-08-22T05:35:32.443Z,92.20
2017-08-22T05:37:59.865Z,92.10
2017-08-22T05:40:27.315Z,92.10
2017-08-22T05:42:54.804Z,92.40
2017-08-22T05:45:22.236Z,92.30
2017-08-22T05:47:49.709Z,92.30
2017-08-22T05:50:17.136Z,92.20
2017-08-22T05:52:44.625Z,92.20
2017-08-22T05:55:12.045Z,92.20
2017-08-22T05:57:39.543Z,92.30
2017-08-22T06:00:06.968Z,92.10
2017-08-22T06:02:34.414Z,92.20
2017-08-22T06:05:01.861Z,92.00
2017-08-22T06:07:29.280Z,91.90
2017-08-22T06:09:56.713Z,91.80
2017-08-22T06:12:24.127Z,91.70
2017-08-22T06:14:51.548Z,91.60
2017-08-22T06:17:18.986Z,91.60
2017-08-22T06:19:46.539Z,91.60
2017-08-22T06:22:14.004Z,92.00
2017-08-22T06:24:41.455Z,91.90
2017-08-22T06:27:08.886Z,92.30
2017-08-22T06:29:36.325Z,91.80
2017-08-22T06:32:03.732Z,91.80
2017-08-22T06:34:31.197Z,92.00
2017-08-22T06:36:58.605Z,91.60
2017-08-22T06:39:26.128Z,91.60
2017-08-22T06:41:53.568Z,91.60
2017-08-22T06:44:21.037Z,91.60
2017-08-22T06:46:48.497Z,91.40
2017-08-22T06:49:16.064Z,91.60
2017-08-22T06:51:43.541Z,91.50
2017-08-22T06:54:11.049Z,91.40
2017-08-22T06:56:38.464Z,91.40
2017-08-22T06:59:05.906Z,91.20
2017-08-22T07:01:33.373Z,91.20
2017-08-22T07:04:00.843Z,91.00
2017-08-22T07:06:28.295Z,90.70
2017-08-22T07:08:55.763Z,90.30
2017-08-22T07:11:23.221Z,90.10
2017-08-22T07:13:50.648Z,90.00
2017-08-22T07:16:18.141Z,89.20
2017-08-22T07:18:45.579Z,89.40
2017-08-22T07:21:13.028Z,88.30
2017-08-22T07:23:40.486Z,88.10
2017-08-22T07:26:07.937Z,87.70
2017-08-22T07:28:35.364Z,87.70
2017-08-22T07:31:02.839Z,87.70
2017-08-22T07:33:30.256Z,86.50
2017-08-22T07:35:57.753Z,85.60
2017-08-22T07:38:25.186Z,85.00
2017-08-22T07:40:52.625Z,85.20
2017-08-22T07:43:20.044Z,85.70
2017-08-22T07:45:47.559Z,86.00
2017-08-22T07:48:15.140Z,85.50
2017-08-22T07:50:42.588Z,85.30
2017-08-22T07:53:10.004Z,84.70
2017-08-22T07:55:37.496Z,85.40
2017-08-22T07:58:04.931Z,86.10
2017-08-22T08:00:32.409Z,85.60
2017-08-22T08:02:59.838Z,85.10
2017-08-22T08:05:27.261Z,85.60
2017-08-22T08:07:54.869Z,83.40
2017-08-22T08:10:22.274Z,82.90
2017-08-22T08:12:49.720Z,82.20
2017-08-22T08:15:17.152Z,82.80
2017-08-22T08:17:44.575Z,83.30
2017-08-22T08:20:11.997Z,83.60
2017-08-22T08:22:39.437Z,83.30
2017-08-22T08:25:06.869Z,82.60
2017-08-22T08:27:34.284Z,80.70
2017-08-22T08:30:01.745Z,79.90
2017-08-22T08:32:29.161Z,79.50
2017-08-22T08:34:56.644Z,79.20
2017-08-22T08:37:24.073Z,79.00
2017-08-22T08:39:51.492Z,77.70
2017-08-22T08:42:18.938Z,78.50
2017-08-22T08:44:46.555Z,79.10
2017-08-22T08:47:13.957Z,77.90
2017-08-22T08:49:41.478Z,77.40
2017-08-22T08:52:08.936Z,76.80
2017-08-22T08:54:36.399Z,76.00
2017-08-22T08:57:03.833Z,75.80
2017-08-22T08:59:31.252Z,74.80
2017-08-22T09:01:59.459Z,74.90
2017-08-22T09:04:26.934Z,74.70
2017-08-22T09:06:54.637Z,73.00
2017-08-22T09:09:22.188Z,72.90
2017-08-22T09:11:49.597Z,71.40
2017-08-22T09:14:17.054Z,71.50
2017-08-22T09:16:44.527Z,71.90
2017-08-22T09:19:12.071Z,69.70
2017-08-22T09:21:39.487Z,69.50
2017-08-22T09:24:07.015Z,67.30
2017-08-22T09:26:34.440Z,67.90
2017-08-22T09:29:01.900Z,67.50
2017-08-22T09:31:29.357Z,66.70
2017-08-22T09:33:56.811Z,66.00
2017-08-22T09:36:24.330Z,65.00
2017-08-22T09:38:51.738Z,66.00
2017-08-22T09:41:19.295Z,66.60
2017-08-22T09:43:46.712Z,67.90
2017-08-22T09:46:14.197Z,67.00
2017-08-22T09:48:41.624Z,65.30
2017-08-22T09:51:09.112Z,65.30
2017-08-22T09:53:36.576Z,62.40
2017-08-22T09:56:04.005Z,63.10
2017-08-22T09:58:31.585Z,62.90
2017-08-22T10:00:59.039Z,64.50
2017-08-22T10:03:26.452Z,64.30
2017-08-22T10:05:53.875Z,64.10
2017-08-22T10:08:21.308Z,61.80
2017-08-22T10:10:48.764Z,60.40
2017-08-22T10:13:16.199Z,60.30
2017-08-22T10:15:43.628Z,59.70
2017-08-22T10:18:11.133Z,60.60
2017-08-22T10:20:38.557Z,58.50
2017-08-22T10:23:06.068Z,58.90
2017-08-22T10:25:33.524Z,59.30
2017-08-22T10:28:01.049Z,58.20
2017-08-22T10:30:28.525Z,57.90
2017-08-22T10:32:55.933Z,58.60
2017-08-22T10:35:23.436Z,58.20
2017-08-22T10:38:18.694Z,58.60
2017-08-22T10:40:46.200Z,57.80
2017-08-22T10:43:13.664Z,58.70
2017-08-22T10:45:41.089Z,57.80
2017-08-22T10:48:08.521Z,58.40
2017-08-22T10:50:36.694Z,58.00
2017-08-22T10:53:04.895Z,58.10
2017-08-22T10:55:32.359Z,58.10
2017-08-22T10:57:59.813Z,57.00
2017-08-22T11:00:27.272Z,54.70
2017-08-22T11:02:54.705Z,54.80
2017-08-22T11:05:22.310Z,54.80
2017-08-22T11:07:49.761Z,55.00
2017-08-22T11:10:17.221Z,54.80
2017-08-22T11:12:44.681Z,55.60
2017-08-22T11:15:12.104Z,56.20
2017-08-22T11:17:39.700Z,54.90
2017-08-22T11:20:07.141Z,53.90
2017-08-22T11:22:34.564Z,54.30
2017-08-22T11:25:02.037Z,54.00
2017-08-22T11:27:29.534Z,53.50
2017-08-22T11:29:56.949Z,53.50
2017-08-22T11:32:24.432Z,52.60
2017-08-22T11:34:51.857Z,52.20
2017-08-22T11:37:19.287Z,51.70
2017-08-22T11:39:46.804Z,51.80
2017-08-22T11:42:14.231Z,50.80
2017-08-22T11:44:41.661Z,51.40
2017-08-22T11:47:09.165Z,51.70
2017-08-22T11:49:36.628Z,50.80
2017-08-22T11:52:04.058Z,50.00
2017-08-22T11:54:31.646Z,51.30
2017-08-22T11:56:59.099Z,51.30
2017-08-22T11:59:26.512Z,51.00
2017-08-22T12:01:53.964Z,50.20
2017-08-22T12:04:21.480Z,48.30
2017-08-22T12:06:48.909Z,47.90
2017-08-22T12:09:16.386Z,46.50
2017-08-22T12:11:43.804Z,44.30
2017-08-22T12:14:11.309Z,43.50
2017-08-22T12:16:38.777Z,43.30
2017-08-22T12:19:06.197Z,43.10
2017-08-22T12:21:33.650Z,43.00
2017-08-22T12:24:01.044Z,41.20
2017-08-22T12:26:28.494Z,40.20
2017-08-22T12:28:55.917Z,38.00
2017-08-22T12:31:23.411Z,36.60
2017-08-22T12:33:50.843Z,35.80
2017-08-22T12:36:18.326Z,35.40
2017-08-22T12:38:45.861Z,35.70
2017-08-22T12:41:13.322Z,35.50
2017-08-22T12:43:40.781Z,34.00
2017-08-22T12:46:08.235Z,32.70
2017-08-22T12:48:35.686Z,32.30
2017-08-22T12:51:03.090Z,32.00
2017-08-22T12:53:30.530Z,31.00
2017-08-22T12:55:57.956Z,30.40
2017-08-22T12:58:25.386Z,31.50
2017-08-22T13:00:53.105Z,33.40
2017-08-22T13:03:20.536Z,35.20
2017-08-22T13:05:47.998Z,34.90
2017-08-22T13:08:15.448Z,34.10
2017-08-22T13:10:42.884Z,32.90
2017-08-22T13:13:10.312Z,36.50
2017-08-22T13:15:37.821Z,35.20
2017-08-22T13:18:05.247Z,33.90
2017-08-22T13:20:32.832Z,34.80
2017-08-22T13:23:00.296Z,37.50
2017-08-22T13:25:27.711Z,41.00
2017-08-22T13:27:55.208Z,42.00
2017-08-22T13:30:22.672Z,45.20
2017-08-22T13:32:50.120Z,45.20
2017-08-22T13:35:17.555Z,45.90
2017-08-22T13:37:44.985Z,46.30
2017-08-22T13:40:12.409Z,47.90
2017-08-22T13:42:39.948Z,49.70
2017-08-22T13:45:07.404Z,50.30
2017-08-22T13:47:34.895Z,49.80
2017-08-22T13:50:02.328Z,50.50
2017-08-22T13:52:29.772Z,51.40
2017-08-22T13:54:57.233Z,51.80
2017-08-22T13:57:24.665Z,51.60
2017-08-22T13:59:52.072Z,50.60
2017-08-22T14:02:19.524Z,50.70
2017-08-22T14:04:46.953Z,46.10
2017-08-22T14:07:14.384Z,45.00
2017-08-22T14:09:41.861Z,40.20
2017-08-22T14:12:09.308Z,40.90
2017-08-22T14:14:36.748Z,42.80
2017-08-22T14:17:04.237Z,44.70
2017-08-22T14:19:31.653Z,45.80
2017-08-22T14:21:59.084Z,48.40
2017-08-22T14:24:26.624Z,49.80
2017-08-22T14:26:54.166Z,50.40
2017-08-22T14:29:21.591Z,50.90
2017-08-22T14:31:49.012Z,51.00
2017-08-22T14:34:16.437Z,49.60
2017-08-22T14:36:43.891Z,48.90
2017-08-22T14:39:11.348Z,49.70
2017-08-22T14:41:38.776Z,49.20
2017-08-22T14:44:07.000Z,44.40
2017-08-22T14:46:34.435Z,44.30
2017-08-22T14:49:01.897Z,43.20
2017-08-22T14:51:29.312Z,41.50
2017-08-22T14:53:57.528Z,43.50
2017-08-22T14:56:24.989Z,43.50
2017-08-22T14:58:52.441Z,43.30
2017-08-22T15:01:19.995Z,46.60
2017-08-22T15:03:47.456Z,47.00
2017-08-22T15:06:14.877Z,47.70
2017-08-22T15:08:42.369Z,46.10
2017-08-22T15:11:09.824Z,42.60
2017-08-22T15:13:37.311Z,39.50
2017-08-22T15:16:04.735Z,37.90
2017-08-22T15:18:33.221Z,36.40
2017-08-22T15:21:00.640Z,36.20
2017-08-22T15:23:28.155Z,35.50
2017-08-22T15:25:55.601Z,36.60
2017-08-22T15:28:23.054Z,41.10
2017-08-22T15:30:50.509Z,43.80
2017-08-22T15:33:17.954Z,44.90
2017-08-22T15:35:45.428Z,47.30
2017-08-22T15:38:12.845Z,48.40
2017-08-22T15:40:40.277Z,48.60
2017-08-22T15:43:07.800Z,48.30
2017-08-22T15:45:35.342Z,48.90
2017-08-22T15:48:02.802Z,49.40
2017-08-22T15:50:30.227Z,50.00
2017-08-22T15:52:57.643Z,51.00
2017-08-22T15:55:25.071Z,51.60
2017-08-22T15:57:52.526Z,52.20
2017-08-22T16:00:19.959Z,52.10
2017-08-22T16:02:47.364Z,51.70
2017-08-22T16:05:14.901Z,51.50
2017-08-22T16:07:42.329Z,51.80
2017-08-22T16:10:09.752Z,50.90
2017-08-22T16:12:37.369Z,50.10
2017-08-22T16:15:04.835Z,49.40
2017-08-22T16:17:32.249Z,48.30
2017-08-22T16:19:59.737Z,48.50
2017-08-22T16:22:27.152Z,48.00
2017-08-22T16:24:54.582Z,47.60
2017-08-22T16:27:22.036Z,47.70
2017-08-22T16:29:49.488Z,47.80
2017-08-22T16:32:16.919Z,47.10
2017-08-22T16:34:45.117Z,46.40
2017-08-22T16:37:12.577Z,46.50
2017-08-22T16:39:40.003Z,45.30
2017-08-22T16:42:07.488Z,45.90
2017-08-22T16:44:34.944Z,46.80
2017-08-22T16:47:02.406Z,47.10
2017-08-22T16:49:29.835Z,48.00
2017-08-22T16:51:57.316Z,48.60
2017-08-22T16:54:24.747Z,48.50
2017-08-22T16:56:52.161Z,48.70
2017-08-22T16:59:19.596Z,48.40
2017-08-22T17:01:47.018Z,48.60
2017-08-22T17:04:14.437Z,47.90
2017-08-22T17:06:41.956Z,48.00
2017-08-22T17:09:09.393Z,48.10
2017-08-22T17:11:36.865Z,48.40
2017-08-22T17:14:04.297Z,48.00
2017-08-22T17:16:31.875Z,48.20
2017-08-22T17:18:59.349Z,48.40
2017-08-22T17:21:26.794Z,47.80
2017-08-22T17:23:54.256Z,47.70
2017-08-22T17:26:21.683Z,46.70
2017-08-22T17:28:49.156Z,47.20
2017-08-22T17:31:16.572Z,47.10
2017-08-22T17:33:44.080Z,47.40
2017-08-22T17:36:11.537Z,47.40
2017-08-22T17:38:38.972Z,49.50
2017-08-22T17:41:06.542Z,50.10
2017-08-22T17:43:34.001Z,50.30
2017-08-22T17:46:01.418Z,51.30
2017-08-22T17:48:28.841Z,51.80
2017-08-22T17:50:56.274Z,52.90
2017-08-22T17:53:23.708Z,53.30
2017-08-22T17:55:51.183Z,53.80
2017-08-22T17:58:18.615Z,54.10
2017-08-22T18:00:46.012Z,54.60
2017-08-22T18:03:13.456Z,55.00
2017-08-22T18:05:40.893Z,55.10
2017-08-22T18:08:08.354Z,55.60
2017-08-22T18:10:35.752Z,56.10
2017-08-22T18:13:03.182Z,56.00
2017-08-22T18:15:30.631Z,56.50
2017-08-22T18:17:58.050Z,56.70
2017-08-22T18:20:25.471Z,57.00
2017-08-22T18:22:52.892Z,57.30
2017-08-22T18:25:20.346Z,57.50
2017-08-22T18:27:47.809Z,57.80
2017-08-22T18:30:15.238Z,58.20
2017-08-22T18:32:42.712Z,58.70
2017-08-22T18:35:10.180Z,58.80
2017-08-22T18:37:37.606Z,59.30
2017-08-22T18:40:05.182Z,60.00
2017-08-22T18:42:32.650Z,60.60
2017-08-22T18:45:00.129Z,60.50
2017-08-22T18:47:27.656Z,61.00
2017-08-22T18:49:56.136Z,61.20
2017-08-22T18:52:23.697Z,61.30
2017-08-22T18:54:51.116Z,61.50
2017-08-22T18:57:19.340Z,62.00
2017-08-22T18:59:46.781Z,62.00
2017-08-22T19:02:14.264Z,62.00
2017-08-22T19:04:41.696Z,63.10
2017-08-22T19:07:09.159Z,62.30
2017-08-22T19:09:36.604Z,62.70
2017-08-22T19:12:04.041Z,63.30
2017-08-22T19:14:31.525Z,64.50
2017-08-22T19:16:58.984Z,64.30
2017-08-22T19:19:26.416Z,64.60
2017-08-22T19:21:53.891Z,64.30
2017-08-22T19:24:21.345Z,64.60
2017-08-22T19:26:48.807Z,66.90
2017-08-22T19:29:16.263Z,67.50
2017-08-22T19:31:43.718Z,67.60
2017-08-22T19:34:11.176Z,67.00
2017-08-22T19:36:38.637Z,67.30
2017-08-22T19:39:06.091Z,67.70
2017-08-22T19:41:33.520Z,67.70
2017-08-22T19:44:01.003Z,67.70
2017-08-22T19:46:28.475Z,68.10
2017-08-22T19:48:55.919Z,68.50
2017-08-22T19:51:23.474Z,68.30
2017-08-22T19:53:50.902Z,68.30
2017-08-22T19:56:18.332Z,69.00
2017-08-22T19:58:46.557Z,70.80
2017-08-22T20:01:13.971Z,70.80
2017-08-22T20:03:41.401Z,70.30
2017-08-22T20:06:09.016Z,70.30
2017-08-22T20:08:36.487Z,70.90
2017-08-22T20:11:03.900Z,70.80
2017-08-22T20:13:31.408Z,70.90
2017-08-22T20:15:58.873Z,70.70
2017-08-22T20:18:26.353Z,70.80
2017-08-22T20:20:54.574Z,71.30
2017-08-22T20:23:22.073Z,71.20
2017-08-22T20:25:49.520Z,70.90
2017-08-22T20:28:16.964Z,71.00
2017-08-22T20:30:44.401Z,70.90
2017-08-22T20:33:11.825Z,71.60
2017-08-22T20:35:39.321Z,70.80
2017-08-22T20:38:06.764Z,70.20
2017-08-22T20:40:34.249Z,70.20
2017-08-22T20:43:01.689Z,70.40
2017-08-22T20:45:29.109Z,70.30
2017-08-22T20:47:57.320Z,70.60
2017-08-22T20:50:24.750Z,70.70
2017-08-22T20:52:52.172Z,70.70
2017-08-22T20:55:20.372Z,71.30
2017-08-22T20:57:47.789Z,70.90
2017-08-22T21:00:15.213Z,70.70
2017-08-22T21:02:42.649Z,71.00
2017-08-22T21:05:10.219Z,70.90
2017-08-22T21:07:37.672Z,71.00
2017-08-22T21:10:05.115Z,71.10
2017-08-22T21:12:32.593Z,71.40
2017-08-22T21:15:00.053Z,71.60
2017-08-22T21:17:27.468Z,71.80
2017-08-22T21:19:54.923Z,71.90
2017-08-22T21:22:22.518Z,71.90
2017-08-22T21:24:49.928Z,71.90
2017-08-22T21:27:17.433Z,71.90
2017-08-22T21:29:44.856Z,72.10
2017-08-22T21:32:12.301Z,72.00
2017-08-22T21:34:40.519Z,71.90
2017-08-22T21:37:07.992Z,71.80
2017-08-22T21:39:35.426Z,72.10
2017-08-22T21:42:02.904Z,71.70
2017-08-22T21:44:30.335Z,72.30
2017-08-22T21:46:58.624Z,73.50
2017-08-22T21:49:26.042Z,73.50
2017-08-22T21:51:53.484Z,73.60
2017-08-22T21:54:20.921Z,74.30
2017-08-22T21:56:48.442Z,74.30
2017-08-22T21:59:15.892Z,74.50
2017-08-22T22:01:43.317Z,74.60
2017-08-22T22:04:10.748Z,75.00
2017-08-22T22:06:38.159Z,75.20
2017-08-22T22:09:05.623Z,75.30
2017-08-22T22:11:33.065Z,75.50
2017-08-22T22:14:00.495Z,75.80
2017-08-22T22:16:27.999Z,76.20
2017-08-22T22:18:55.449Z,76.90
2017-08-22T22:21:22.928Z,77.20
2017-08-22T22:23:51.040Z,77.50
2017-08-22T22:26:18.473Z,77.50
2017-08-22T22:28:45.981Z,77.70
2017-08-22T22:31:13.426Z,77.90
2017-08-22T22:33:40.860Z,78.10
2017-08-22T22:36:08.403Z,78.50
2017-08-22T22:38:35.834Z,79.00
2017-08-22T22:41:03.297Z,78.50
2017-08-22T22:43:30.752Z,78.80
2017-08-22T22:45:58.209Z,78.70
2017-08-22T22:48:25.633Z,79.60
2017-08-22T22:50:53.212Z,78.80
2017-08-22T22:53:20.772Z,79.00
2017-08-22T22:55:48.207Z,80.10
2017-08-22T22:58:15.692Z,80.20
2017-08-22T23:00:43.155Z,80.70
2017-08-22T23:03:10.605Z,81.30
2017-08-22T23:05:38.047Z,81.90
2017-08-22T23:08:05.469Z,82.30
2017-08-22T23:10:32.971Z,82.90
2017-08-22T23:13:00.436Z,83.20
2017-08-22T23:15:27.980Z,83.30
2017-08-22T23:17:55.407Z,83.30
2017-08-22T23:20:22.865Z,83.60
2017-08-22T23:22:50.294Z,83.90
2017-08-22T23:25:17.801Z,83.90
2017-08-22T23:27:45.223Z,84.20
2017-08-22T23:30:12.816Z,83.90
2017-08-22T23:32:40.382Z,84.80
2017-08-22T23:35:07.804Z,85.50
2017-08-22T23:37:35.245Z,86.10
2017-08-22T23:40:02.746Z,86.70
2017-08-22T23:42:30.160Z,86.80
2017-08-22T23:44:57.657Z,86.40
2017-08-22T23:47:25.085Z,86.10
2017-08-22T23:49:52.600Z,85.90
2017-08-22T23:52:20.024Z,86.00
2017-08-22T23:54:47.491Z,86.50
2017-08-22T23:57:14.987Z,86.80
2017-08-22T23:59:42.503Z,87.30
